Talmadge, Maine
Current Conditions -  °F | °C
As of 12:53 PM on Thursday 18 Dec 2014 (Local Time) from KHUL Reporting Station
Light Snow Light Snow  
Wind Chill: 20°   Ceiling: 1500
Heat Index: 30°   Visibility: 3mi
Dew Point: 26°   Wind: 13mph
Humidity: 85%   Direction: 320°NW
Pressure: 29.51"   Gusts: 20mph
Location:  45.3759°N, 67.6018°W
Report Text: KHUL 181753Z AUTO 32011G17KT 3SM -SN BR FEW010 OVC015 M01/M03 A2951 RMK AO2 SLP999 P0000 60002 T10111033 11011 21028 56013
Loading
Personal Weather Stations






























Interactive Weather Map New forecast layout! Learn more

10-Day Weather Forecast

Advertisements
Track Severe Weather on mobile